Flight Track Log - Related Links

Times and Time Zones

All times are in EDT time to prevent confusion due to time zone crossing. See the AWE3988 flight status page for this flight to view local times or setup timezone preferences in your user account.

Time Position Orientation Groundspeed Altitude Reporting Facility
EDT Latitude Longitude Course Direction KTS MPH feet Rate Location/Type
Fri 02:34:28 PM 39.8833 -75.2167 57° Northeast 140 161 1,000  Level Philadelphia TRACON
Fri 02:35:28 PM 39.8667 -75.1500 108° East 196 226 3,100 2,150 Climbing Philadelphia TRACON
Fri 02:36:28 PM 39.8500 -75.0667 105° East 259 298 5,300 2,211 Climbing Philadelphia TRACON
Fri 02:37:00 PM 39.8209 -74.6625 37° Northeast  Level FlightAware
Fri 02:37:22 PM 39.8333 -75.0000 108° East 251 289 7,300  Level Philadelphia TRACON
Fri 02:38:00 PM 39.9499 -74.5501 37° Northeast  Level FlightAware
Fri 02:39:00 PM 40.0705 -74.4258 57° Northeast  Level FlightAware
Fri 02:39:34 PM 39.8092 -74.7972 99° East 266 306 11,200  Level New Center
Fri 02:40:35 PM 39.8108 -74.6894 89° East 279 321 11,900 1,210 Climbing New Center
Fri 02:41:33 PM 39.9011 -74.6106 34° Northeast 297 342 13,600 2,034 Climbing New Center
Fri 02:42:33 PM 39.9783 -74.5389 35° Northeast 317 365 15,900 2,380 Climbing New Center
Fri 02:43:34 PM 40.0453 -74.4694 38° Northeast 317 365 18,400 1,770 Climbing New Center
Fri 02:44:35 PM 40.1119 -74.4022 38° Northeast 311 358 19,500 850 Climbing New Center
Fri 02:45:34 PM 40.1892 -74.3275 36° Northeast 318 366 20,100 650 Climbing New Center
Fri 02:46:35 PM 40.2747 -74.2586 32° Northeast 334 384 20,800 814 Climbing New Center
Fri 02:47:32 PM 40.3681 -74.2033 24° Northeast 355 409 21,700 915 Climbing New Center
Fri 02:48:33 PM 40.4633 -74.1453 25° Northeast 362 417 22,600 885 Climbing New Center
Fri 02:49:34 PM 40.5586 -74.0900 24° Northeast 368 423 23,500 893 Climbing New Center
Fri 02:50:34 PM 40.6542 -74.0344 24° Northeast 368 423 24,400 861 Climbing New Center
Fri 02:52:56 PM 40.8797 -73.9253 20° North 377 434 26,400 772 Climbing Boston Center
Fri 02:53:56 PM 40.9839 -73.9194 North 362 417 27,000 300 Climbing Boston Center
Fri 02:54:56 PM 41.0903 -73.9136 North 373 429 27,000  Level Boston Center
Fri 02:55:56 PM 41.1967 -73.9050 North 378 435 27,000  Level Boston Center
Fri 02:56:56 PM 41.3031 -73.8992 North 378 435 27,000  Level Boston Center
Fri 02:57:56 PM 41.4075 -73.8903 North 383 441 27,000  Level Boston Center
Fri 02:58:56 PM 41.5139 -73.8844 North 378 435 27,000  Level Boston Center
Fri 03:00:08 PM 41.6158 -73.8783 North 378 435 27,000  Level Boston Center
Fri 03:01:08 PM 41.7411 -73.8731 North 378 435 27,000  Level Boston Center
Fri 03:02:08 PM 41.8356 -73.8108 26° Northeast 346 398 27,000  Level Boston Center
Fri 03:03:08 PM 41.9036 -73.7008 50° Northeast 344 396 27,000  Level Boston Center
Fri 03:04:08 PM 41.9714 -73.5933 50° Northeast 355 409 27,000  Level Boston Center
Fri 03:05:08 PM 42.0411 -73.4883 48° Northeast 366 421 27,000 -300 Level Boston Center
Fri 03:06:08 PM 42.1089 -73.3831 49° Northeast 401 461 26,400 -950 Descending Boston Center
Fri 03:07:08 PM 42.1828 -73.2694 49° Northeast 390 449 25,100 -1,250 Descending Boston Center
Fri 03:08:08 PM 42.2522 -73.1581 50° Northeast 380 437 23,900 -1,200 Descending Boston Center
Fri 03:09:08 PM 42.3092 -73.0408 57° Northeast 380 437 22,700 -1,200 Descending Boston Center
Fri 03:10:08 PM 42.3619 -72.9233 59° Northeast 389 448 21,500 -1,200 Descending Boston Center
Fri 03:11:08 PM 42.4186 -72.8056 57° Northeast 383 441 20,300 -1,364 Descending Boston Center
Fri 03:12:20 PM 42.4772 -72.6822 57° Northeast 355 409 18,500 -1,591 Descending Boston Center
Fri 03:13:20 PM 42.5358 -72.5583 57° Northeast 349 402 16,800 -1,900 Descending Boston Center
Fri 03:14:20 PM 42.5858 -72.4514 58° Northeast 343 395 14,700 -2,050 Descending Boston Center
Fri 03:15:20 PM 42.6358 -72.3442 58° Northeast 343 395 12,700 -1,950 Descending Boston Center
Fri 03:16:20 PM 42.6858 -72.2283 60° Northeast 338 389 10,800 -1,400 Descending Boston Center
Fri 03:17:20 PM 42.7211 -72.1489 59° Northeast 296 341 9,900 -1,100 Descending Boston Center
Fri 03:18:20 PM 42.7667 -72.0528 57° Northeast 267 307 8,600 -1,300 Descending Boston Center
Fri 03:19:20 PM 42.8017 -71.9789 57° Northeast 262 302 7,300 -1,250 Descending Boston Center
Fri 03:20:20 PM 42.8453 -71.9078 50° Northeast 262 302 6,100 -1,100 Descending Boston Center
Fri 03:21:20 PM 42.8947 -71.8364 47° Northeast 262 302 5,100 -1,150 Descending Boston Center
Fri 03:22:20 PM 42.9444 -71.7453 53° Northeast 255 293 3,800 -800 Descending Boston Center
Fri 03:23:20 PM 42.9794 -71.6767 55° Northeast 244 281 3,500 -600 Descending Boston Center
Fri 03:24:20 PM 43.0100 -71.5997 61° Northeast 220 253 2,600 -900 Descending Boston Center

Login

Don't have an account? Register now (free) for customized features, flight alerts, and more!